Time;durP1;ratioP1;P1;durP2;ratioP2;P2;SDS_P1;SDS_P2;PMS_P1;PMS_P2;Temp;Humidity;BMP_temperature;BMP_pressure;BME280_temperature;BME280_humidity;BME280_pressure;Samples;Min_cycle;Max_cycle;Signal;HPM_P1;HPM_P2
2023/04/27 00:00:37;;;;;;;12.32;7.15;;;3.90;99.90;;;;;;4932432;28;20111;-67
2023/04/27 00:03:04;;;;;;;10.57;6.68;;;3.90;99.90;;;;;;4933973;28;24145;-67
2023/04/27 00:05:37;;;;;;;14.48;7.20;;;3.90;99.90;;;;;;4936133;28;20051;-67
2023/04/27 00:08:07;;;;;;;9.73;6.50;;;3.90;99.90;;;;;;4950494;28;20114;-67
2023/04/27 00:10:33;;;;;;;11.07;6.50;;;3.90;99.90;;;;;;4945285;28;20731;-66
2023/04/27 00:12:59;;;;;;;9.18;6.80;;;3.90;99.90;;;;;;4929270;28;20119;-66
2023/04/27 00:15:25;;;;;;;9.85;6.45;;;3.90;99.90;;;;;;4948875;28;20065;-66
2023/04/27 00:17:50;;;;;;;10.75;6.78;;;3.90;99.90;;;;;;4942436;28;21046;-67
2023/04/27 00:20:17;;;;;;;9.57;6.00;;;3.90;99.90;;;;;;4920075;28;20592;-66
2023/04/27 00:22:43;;;;;;;8.88;5.93;;;3.90;99.90;;;;;;4948799;28;20050;-66
2023/04/27 00:25:09;;;;;;;9.90;6.38;;;3.90;99.90;;;;;;4948561;28;20472;-66
2023/04/27 00:27:35;;;;;;;11.27;6.00;;;3.90;99.90;;;;;;4946737;28;20088;-66
2023/04/27 00:30:01;;;;;;;10.65;6.07;;;3.90;99.90;;;;;;4936368;28;20050;-66
2023/04/27 00:32:26;;;;;;;10.05;6.22;;;3.90;99.90;;;;;;4944603;28;20144;-66
2023/04/27 00:34:52;;;;;;;11.88;6.38;;;3.90;99.90;;;;;;4947391;28;20132;-66
2023/04/27 00:37:18;;;;;;;10.30;6.25;;;3.90;99.90;;;;;;4954066;28;20086;-66
2023/04/27 00:39:44;;;;;;;11.38;6.65;;;4.00;99.90;;;;;;4948549;28;20056;-67
2023/04/27 00:42:14;;;;;;;10.85;6.32;;;3.90;99.90;;;;;;4937689;28;20058;-66
2023/04/27 00:44:40;;;;;;;10.05;6.22;;;3.90;99.90;;;;;;4938545;28;20038;-67
2023/04/27 00:47:06;;;;;;;13.30;6.70;;;3.90;99.90;;;;;;4945215;28;20038;-66
2023/04/27 00:49:32;;;;;;;13.63;6.35;;;3.90;99.90;;;;;;4945773;28;20088;-66
2023/04/27 00:51:59;;;;;;;10.32;6.40;;;3.90;99.90;;;;;;4948889;28;20038;-66
2023/04/27 00:54:25;;;;;;;10.30;5.78;;;3.90;99.90;;;;;;4933948;28;20081;-66
2023/04/27 00:56:51;;;;;;;11.60;6.10;;;3.90;99.90;;;;;;4944576;28;20129;-66
2023/04/27 00:59:18;;;;;;;7.88;5.65;;;3.80;99.90;;;;;;4935739;28;20050;-66
2023/04/27 01:01:45;;;;;;;11.60;6.70;;;3.80;99.90;;;;;;4938790;28;20478;-66
2023/04/27 01:04:11;;;;;;;12.60;6.10;;;3.70;99.90;;;;;;4942370;28;20074;-66
2023/04/27 01:06:38;;;;;;;9.48;6.20;;;3.70;99.90;;;;;;4933747;28;20129;-66
2023/04/27 01:09:05;;;;;;;11.43;6.55;;;3.60;99.90;;;;;;4929684;28;20199;-66
2023/04/27 01:11:32;;;;;;;9.38;6.07;;;3.60;99.90;;;;;;4948518;28;20061;-66
2023/04/27 01:14:05;;;;;;;11.05;6.75;;;3.60;99.90;;;;;;4938974;28;20065;-66
2023/04/27 01:16:32;;;;;;;10.95;6.20;;;3.60;99.90;;;;;;4931222;28;20058;-66
2023/04/27 01:18:58;;;;;;;10.80;6.47;;;3.60;99.90;;;;;;4956825;28;20046;-66
2023/04/27 01:21:25;;;;;;;9.38;5.72;;;3.50;99.90;;;;;;4948071;28;20136;-66
2023/04/27 01:23:51;;;;;;;12.20;6.07;;;3.50;99.90;;;;;;4946972;28;20061;-66
2023/04/27 01:26:17;;;;;;;10.68;6.07;;;3.50;99.90;;;;;;4947648;28;20042;-66
2023/04/27 01:28:43;;;;;;;11.32;6.28;;;3.40;99.90;;;;;;4927033;28;20049;-66
2023/04/27 01:31:12;;;;;;;9.88;6.57;;;3.40;99.90;;;;;;4957938;28;20043;-66
2023/04/27 01:33:38;;;;;;;10.38;6.25;;;3.30;99.90;;;;;;4932360;28;20066;-66
2023/04/27 01:36:05;;;;;;;9.13;6.45;;;3.30;99.90;;;;;;4954617;28;20042;-66
2023/04/27 01:38:32;;;;;;;11.80;6.75;;;3.30;99.90;;;;;;4930952;28;20047;-66
2023/04/27 01:41:00;;;;;;;11.82;6.30;;;3.30;99.90;;;;;;4943510;28;20061;-66
2023/04/27 01:43:27;;;;;;;10.48;6.70;;;3.30;99.90;;;;;;4930776;28;20777;-66
2023/04/27 01:45:53;;;;;;;9.15;6.38;;;3.30;99.90;;;;;;4942265;28;20134;-66
2023/04/27 01:48:19;;;;;;;11.63;6.68;;;3.30;99.90;;;;;;4937805;28;20047;-66
2023/04/27 01:50:44;;;;;;;10.63;6.20;;;3.30;99.90;;;;;;4943567;28;20046;-66
2023/04/27 01:53:10;;;;;;;16.73;6.68;;;3.20;99.90;;;;;;4944456;28;21582;-66
2023/04/27 01:55:36;;;;;;;8.40;6.35;;;3.20;99.90;;;;;;4939109;28;20113;-66
2023/04/27 01:58:02;;;;;;;12.10;6.13;;;3.20;99.90;;;;;;4941634;28;20489;-66
2023/04/27 02:00:27;;;;;;;10.38;6.78;;;3.20;99.90;;;;;;4942884;28;20042;-66
2023/04/27 02:02:56;;;;;;;12.38;6.15;;;3.20;99.90;;;;;;4943101;28;20089;-66
2023/04/27 02:05:22;;;;;;;11.35;6.90;;;3.30;99.90;;;;;;4946984;28;20070;-66
2023/04/27 02:07:49;;;;;;;9.95;6.60;;;3.20;99.90;;;;;;4944545;28;20121;-66
2023/04/27 02:10:15;;;;;;;16.27;6.88;;;3.20;99.90;;;;;;4935538;28;20042;-66
2023/04/27 02:12:41;;;;;;;11.52;6.85;;;3.20;99.90;;;;;;4936835;28;20517;-66
2023/04/27 02:15:07;;;;;;;10.77;6.43;;;3.20;99.90;;;;;;4937997;28;20054;-67
2023/04/27 02:17:33;;;;;;;8.95;6.63;;;3.10;99.90;;;;;;4944160;28;21332;-66
2023/04/27 02:20:00;;;;;;;10.63;6.90;;;3.10;99.90;;;;;;4932257;28;20465;-66
2023/04/27 02:22:25;;;;;;;11.63;7.03;;;3.10;99.90;;;;;;4944452;28;20042;-66
2023/04/27 02:24:51;;;;;;;10.35;6.65;;;3.20;99.90;;;;;;4948764;28;20410;-66
2023/04/27 02:27:17;;;;;;;10.00;6.68;;;3.10;99.90;;;;;;4948430;28;20058;-66
2023/04/27 02:29:42;;;;;;;10.07;6.40;;;3.10;99.90;;;;;;4956921;28;20625;-66
2023/04/27 02:32:08;;;;;;;14.55;7.47;;;3.10;99.90;;;;;;4908468;28;20181;-66
2023/04/27 02:34:34;;;;;;;11.77;6.85;;;3.10;99.90;;;;;;4934931;28;20046;-67
2023/04/27 02:37:00;;;;;;;10.40;6.15;;;3.10;99.90;;;;;;4951966;28;20091;-66
2023/04/27 02:39:25;;;;;;;8.35;6.85;;;3.10;99.90;;;;;;4935919;28;20054;-66
2023/04/27 02:41:51;;;;;;;8.82;6.05;;;3.00;99.90;;;;;;4920567;28;20047;-66
2023/04/27 02:44:17;;;;;;;12.32;6.15;;;3.00;99.90;;;;;;4938059;28;20043;-66
2023/04/27 02:46:42;;;;;;;10.90;6.18;;;3.00;99.90;;;;;;4946368;28;20057;-67
2023/04/27 02:49:08;;;;;;;8.55;6.28;;;3.00;99.90;;;;;;4921172;28;20058;-67
2023/04/27 02:51:34;;;;;;;9.43;6.35;;;2.90;99.90;;;;;;4935688;28;20043;-66
2023/04/27 02:54:00;;;;;;;9.23;6.88;;;2.90;99.90;;;;;;4945319;28;20046;-67
2023/04/27 02:56:26;;;;;;;11.73;6.80;;;2.90;99.90;;;;;;4943748;28;20076;-67
2023/04/27 02:58:51;;;;;;;13.55;7.43;;;2.90;99.90;;;;;;4943942;28;20046;-67
2023/04/27 03:01:17;;;;;;;10.23;6.30;;;2.90;99.90;;;;;;4927994;28;20049;-67
2023/04/27 03:03:46;;;;;;;9.55;6.25;;;2.90;99.90;;;;;;4943505;28;20044;-67
2023/04/27 03:06:12;;;;;;;10.73;6.60;;;2.90;99.90;;;;;;4935908;28;20054;-66
2023/04/27 03:08:38;;;;;;;9.07;6.53;;;2.90;99.90;;;;;;4916423;28;22132;-66
2023/04/27 03:11:04;;;;;;;7.78;5.57;;;2.80;99.90;;;;;;4933218;28;20046;-67
2023/04/27 03:13:30;;;;;;;8.70;5.25;;;2.90;99.90;;;;;;4942455;28;20050;-67
2023/04/27 03:15:56;;;;;;;9.23;6.00;;;2.80;99.90;;;;;;4912577;28;21350;-66
2023/04/27 03:18:22;;;;;;;10.02;6.20;;;2.70;99.90;;;;;;4940385;28;20045;-66
2023/04/27 03:20:47;;;;;;;10.80;6.82;;;2.60;99.90;;;;;;4941428;28;20053;-66
2023/04/27 03:23:13;;;;;;;10.77;6.70;;;2.70;99.90;;;;;;4927981;28;20157;-67
2023/04/27 03:25:39;;;;;;;10.98;6.72;;;2.60;99.90;;;;;;4943060;28;20050;-67
2023/04/27 03:28:05;;;;;;;10.55;6.57;;;2.60;99.90;;;;;;4949722;28;20069;-67
2023/04/27 03:30:31;;;;;;;10.23;6.32;;;2.70;99.90;;;;;;4943165;28;20026;-66
2023/04/27 03:32:57;;;;;;;8.73;6.45;;;2.60;99.90;;;;;;4919219;28;20159;-66
2023/04/27 03:35:22;;;;;;;11.45;7.20;;;2.50;99.90;;;;;;4917636;28;20133;-66
2023/04/27 03:37:48;;;;;;;10.73;7.78;;;2.50;99.90;;;;;;4929795;28;20053;-66
2023/04/27 03:40:14;;;;;;;9.68;7.22;;;2.40;99.90;;;;;;4935425;28;20050;-66
2023/04/27 03:42:39;;;;;;;13.27;7.85;;;2.40;99.90;;;;;;4933966;28;20047;-67
2023/04/27 03:45:06;;;;;;;13.48;8.18;;;2.40;99.90;;;;;;4944276;28;20042;-66
2023/04/27 03:47:32;;;;;;;13.90;8.55;;;2.40;99.90;;;;;;4942159;28;20035;-66
2023/04/27 03:49:58;;;;;;;11.57;7.63;;;2.40;99.90;;;;;;4930632;28;20128;-66
2023/04/27 03:52:24;;;;;;;14.30;8.20;;;2.40;99.90;;;;;;4942296;28;23758;-66
2023/04/27 03:54:49;;;;;;;12.57;7.60;;;2.40;99.90;;;;;;4918978;28;20061;-66
2023/04/27 03:57:15;;;;;;;10.90;7.65;;;2.30;99.90;;;;;;4941308;28;20045;-66
2023/04/27 03:59:41;;;;;;;13.50;8.30;;;2.30;99.90;;;;;;4951319;28;20141;-66
2023/04/27 04:02:08;;;;;;;12.90;8.25;;;2.30;99.90;;;;;;4927938;28;20133;-66
2023/04/27 04:04:34;;;;;;;15.57;8.10;;;2.30;99.90;;;;;;4935455;28;20070;-66
2023/04/27 04:06:59;;;;;;;16.38;8.02;;;2.30;99.90;;;;;;4939453;28;20958;-66
2023/04/27 04:09:25;;;;;;;11.35;7.97;;;2.30;99.90;;;;;;4930554;28;20125;-67
2023/04/27 04:11:51;;;;;;;13.70;7.85;;;2.30;99.90;;;;;;4924550;28;20045;-66
2023/04/27 04:14:17;;;;;;;15.82;8.43;;;2.30;99.90;;;;;;4935793;28;20066;-66
2023/04/27 04:16:43;;;;;;;12.35;8.20;;;2.30;99.90;;;;;;4932678;28;20169;-66
2023/04/27 04:19:09;;;;;;;15.32;7.47;;;2.30;99.90;;;;;;4914859;28;20473;-66
2023/04/27 04:21:35;;;;;;;13.32;8.10;;;2.30;99.90;;;;;;4925313;28;20054;-66
2023/04/27 04:24:00;;;;;;;11.73;7.38;;;2.30;99.90;;;;;;4918039;28;20054;-66
2023/04/27 04:26:26;;;;;;;14.98;8.05;;;2.30;99.90;;;;;;4945231;28;20042;-66
2023/04/27 04:28:52;;;;;;;14.38;8.40;;;2.30;99.90;;;;;;4952546;28;20043;-66
2023/04/27 04:31:18;;;;;;;12.98;8.50;;;2.30;99.90;;;;;;4899213;28;20088;-66
2023/04/27 04:33:43;;;;;;;12.55;8.25;;;2.30;99.90;;;;;;4931939;28;20069;-66
2023/04/27 04:36:09;;;;;;;14.70;8.00;;;2.30;99.90;;;;;;4922763;28;20051;-66
2023/04/27 04:38:35;;;;;;;13.88;8.75;;;2.40;99.90;;;;;;4937809;28;20057;-67
2023/04/27 04:41:01;;;;;;;14.07;8.20;;;2.40;99.90;;;;;;4938481;28;20090;-66
2023/04/27 04:43:27;;;;;;;12.90;7.53;;;2.40;99.90;;;;;;4930554;28;20442;-66
2023/04/27 04:45:53;;;;;;;13.25;8.20;;;2.30;99.90;;;;;;4939926;28;20409;-66
2023/04/27 04:48:19;;;;;;;17.50;8.52;;;2.40;99.90;;;;;;4939133;28;20073;-66
2023/04/27 04:50:47;;;;;;;19.38;8.70;;;2.40;99.90;;;;;;4949780;28;20315;-65
2023/04/27 04:53:13;;;;;;;15.82;7.93;;;2.50;99.90;;;;;;4929633;28;20050;-66
2023/04/27 04:55:39;;;;;;;13.57;7.75;;;2.40;99.90;;;;;;4949415;28;20060;-66
2023/04/27 04:58:05;;;;;;;12.75;8.38;;;2.50;99.90;;;;;;4939858;28;20042;-66
2023/04/27 05:00:31;;;;;;;12.60;7.80;;;2.50;99.90;;;;;;4913952;28;20441;-66
2023/04/27 05:02:57;;;;;;;13.40;7.80;;;2.50;99.90;;;;;;4930628;28;20334;-66
2023/04/27 05:05:23;;;;;;;10.07;7.35;;;2.50;99.90;;;;;;4926247;28;20038;-66
2023/04/27 05:07:48;;;;;;;11.25;7.70;;;2.50;99.90;;;;;;4921456;28;20480;-66
2023/04/27 05:10:14;;;;;;;12.48;7.53;;;2.60;99.90;;;;;;4924189;28;21897;-66
2023/04/27 05:12:40;;;;;;;12.15;8.00;;;2.60;99.90;;;;;;4912947;28;20046;-67
2023/04/27 05:15:06;;;;;;;15.13;8.15;;;2.60;99.90;;;;;;4940693;28;20042;-67
2023/04/27 05:17:32;;;;;;;11.18;7.20;;;2.60;99.90;;;;;;4911669;28;20454;-66
2023/04/27 05:19:58;;;;;;;12.05;7.43;;;2.60;99.90;;;;;;4917934;28;20054;-66
2023/04/27 05:22:23;;;;;;;13.77;8.20;;;2.70;99.90;;;;;;4924088;28;20031;-67
2023/04/27 05:24:49;;;;;;;12.48;7.82;;;2.70;99.90;;;;;;4946779;28;20058;-66
2023/04/27 05:27:15;;;;;;;14.80;8.07;;;2.70;99.90;;;;;;4925045;28;20057;-67
2023/04/27 05:29:41;;;;;;;11.38;7.28;;;2.70;99.90;;;;;;4926221;28;20473;-67
2023/04/27 05:32:07;;;;;;;13.75;7.28;;;2.80;99.90;;;;;;4926308;28;20046;-66
2023/04/27 05:34:33;;;;;;;14.52;7.32;;;2.80;99.90;;;;;;4936297;28;20057;-66
2023/04/27 05:36:58;;;;;;;10.65;6.90;;;2.80;99.90;;;;;;4926998;28;21652;-66
2023/04/27 05:39:25;;;;;;;11.90;7.60;;;2.90;99.90;;;;;;4949088;28;20437;-66
2023/04/27 05:41:50;;;;;;;12.48;7.22;;;2.90;99.90;;;;;;4949451;28;20058;-66
2023/04/27 05:44:16;;;;;;;10.80;7.13;;;3.00;99.90;;;;;;4943226;28;20386;-66
2023/04/27 05:46:42;;;;;;;13.07;6.97;;;3.10;99.90;;;;;;4940290;28;20177;-66
2023/04/27 05:49:08;;;;;;;14.70;6.90;;;3.20;99.90;;;;;;4941169;28;20042;-66
2023/04/27 05:51:33;;;;;;;11.40;6.40;;;3.20;99.90;;;;;;4944408;28;20527;-66
2023/04/27 05:54:00;;;;;;;15.60;6.40;;;3.40;99.90;;;;;;4941874;28;20056;-66
2023/04/27 05:56:26;;;;;;;12.73;6.53;;;3.50;99.90;;;;;;4955684;28;20202;-66
2023/04/27 05:58:52;;;;;;;10.25;5.93;;;3.70;99.90;;;;;;4946693;28;20129;-66
2023/04/27 06:01:18;;;;;;;12.15;6.15;;;3.80;99.90;;;;;;4957321;28;20685;-67
2023/04/27 06:03:43;;;;;;;12.40;6.60;;;3.90;99.90;;;;;;4930898;28;20507;-66
2023/04/27 06:06:09;;;;;;;14.40;6.05;;;4.00;99.90;;;;;;4957800;28;20081;-66
2023/04/27 06:08:38;;;;;;;7.65;5.82;;;4.00;99.90;;;;;;4956258;28;20049;-66
2023/04/27 06:11:04;;;;;;;9.13;5.72;;;4.10;99.90;;;;;;4949987;28;20516;-66
2023/04/27 06:13:32;;;;;;;9.52;5.78;;;4.10;99.90;;;;;;4924322;28;20050;-66
2023/04/27 06:15:58;;;;;;;8.70;5.65;;;4.20;99.90;;;;;;4934220;28;20061;-66
2023/04/27 06:18:23;;;;;;;13.05;6.28;;;4.30;99.90;;;;;;4946232;28;20133;-66
2023/04/27 06:20:49;;;;;;;11.35;5.72;;;4.40;99.90;;;;;;4949900;28;20478;-66
2023/04/27 06:23:15;;;;;;;11.43;5.82;;;4.40;99.90;;;;;;4944586;28;20043;-66
2023/04/27 06:25:41;;;;;;;10.82;5.50;;;4.60;99.90;;;;;;4937747;28;20129;-65
2023/04/27 06:28:06;;;;;;;9.88;5.65;;;4.60;99.90;;;;;;4935864;28;20140;-65
2023/04/27 06:30:32;;;;;;;10.52;5.10;;;4.70;99.90;;;;;;4934901;28;21005;-65
2023/04/27 06:32:58;;;;;;;10.25;5.50;;;4.80;99.90;;;;;;4969590;28;20045;-65
2023/04/27 06:35:23;;;;;;;7.72;5.13;;;4.90;99.90;;;;;;4953929;28;20039;-65
2023/04/27 06:37:50;;;;;;;7.70;4.97;;;5.00;99.90;;;;;;4959582;28;20788;-65
2023/04/27 06:40:16;;;;;;;11.68;4.93;;;5.10;99.90;;;;;;4948400;28;20378;-65
2023/04/27 06:42:41;;;;;;;10.98;4.97;;;5.20;99.90;;;;;;4943581;28;20104;-65
2023/04/27 06:45:07;;;;;;;9.13;5.38;;;5.30;99.90;;;;;;4932165;28;20521;-65
2023/04/27 06:47:33;;;;;;;7.30;5.05;;;5.40;99.90;;;;;;4937699;28;20126;-65
2023/04/27 06:49:59;;;;;;;9.93;4.50;;;5.50;99.90;;;;;;4954279;28;20068;-65
2023/04/27 06:52:25;;;;;;;12.02;4.70;;;5.60;99.90;;;;;;4951277;28;20037;-65
2023/04/27 06:54:50;;;;;;;9.73;4.57;;;5.70;99.90;;;;;;4963794;28;20049;-65
2023/04/27 06:57:16;;;;;;;7.88;4.18;;;5.80;99.90;;;;;;4943698;28;20046;-65
2023/04/27 06:59:42;;;;;;;7.03;3.78;;;5.90;99.90;;;;;;4956531;28;20038;-65
2023/04/27 07:02:08;;;;;;;6.45;3.67;;;6.10;99.90;;;;;;4954872;28;20050;-65
2023/04/27 07:04:33;;;;;;;5.70;4.10;;;6.20;99.90;;;;;;4953527;28;20138;-65
2023/04/27 07:06:59;;;;;;;6.72;3.88;;;6.30;99.90;;;;;;4941445;28;20046;-65
2023/04/27 07:09:26;;;;;;;7.97;4.28;;;6.40;99.90;;;;;;4956269;28;20042;-65
2023/04/27 07:11:51;;;;;;;9.18;4.38;;;6.50;99.90;;;;;;4943607;28;20140;-65
2023/04/27 07:14:17;;;;;;;6.70;3.83;;;6.60;99.90;;;;;;4946890;28;20145;-65
2023/04/27 07:16:43;;;;;;;7.13;4.00;;;6.70;99.90;;;;;;4932783;28;20070;-66
2023/04/27 07:19:09;;;;;;;5.82;3.72;;;6.90;99.90;;;;;;4946025;28;20047;-65
2023/04/27 07:21:35;;;;;;;8.57;3.13;;;6.90;99.90;;;;;;4950439;28;20133;-65
2023/04/27 07:24:02;;;;;;;10.43;3.55;;;7.10;99.90;;;;;;4948074;28;20050;-65
2023/04/27 07:26:30;;;;;;;5.70;3.53;;;7.20;99.90;;;;;;4962013;28;20042;-65
2023/04/27 07:28:56;;;;;;;10.77;3.40;;;7.30;99.90;;;;;;4958267;28;20050;-65
2023/04/27 07:31:22;;;;;;;6.45;2.97;;;7.50;99.90;;;;;;4955478;28;20070;-65
2023/04/27 07:33:48;;;;;;;7.00;3.50;;;7.60;99.90;;;;;;4947046;28;20039;-65
2023/04/27 07:36:14;;;;;;;9.23;3.20;;;7.70;99.90;;;;;;4957668;28;20055;-65
2023/04/27 07:38:39;;;;;;;4.50;3.05;;;7.80;99.90;;;;;;4957813;28;20502;-65
2023/04/27 07:41:06;;;;;;;8.10;3.20;;;7.90;99.90;;;;;;4960334;28;20046;-65
2023/04/27 07:43:31;;;;;;;4.43;2.97;;;8.00;99.90;;;;;;4960918;28;20051;-65
2023/04/27 07:45:57;;;;;;;5.35;3.20;;;8.10;99.90;;;;;;4950142;28;20047;-65
2023/04/27 07:48:24;;;;;;;4.65;3.15;;;8.30;99.90;;;;;;4952063;28;20126;-65
2023/04/27 07:50:50;;;;;;;8.20;3.30;;;8.40;99.90;;;;;;4947970;28;20046;-65
2023/04/27 07:53:16;;;;;;;5.13;2.72;;;8.50;99.90;;;;;;4949516;28;20074;-65
2023/04/27 07:55:43;;;;;;;4.63;2.55;;;8.50;99.90;;;;;;4958518;28;20047;-65
2023/04/27 07:58:10;;;;;;;3.55;2.65;;;8.60;99.90;;;;;;4965784;28;20042;-65
2023/04/27 08:00:36;;;;;;;6.18;3.10;;;8.50;99.90;;;;;;4957743;28;20065;-65
2023/04/27 08:03:02;;;;;;;7.55;2.80;;;8.60;99.90;;;;;;4944914;28;20097;-65
2023/04/27 08:05:28;;;;;;;5.45;2.20;;;8.60;99.90;;;;;;4956738;28;20034;-66
2023/04/27 08:07:53;;;;;;;3.22;2.55;;;8.70;99.90;;;;;;4938220;28;20053;-65
2023/04/27 08:10:19;;;;;;;4.75;2.40;;;8.80;99.90;;;;;;4935963;28;20047;-66
2023/04/27 08:12:45;;;;;;;8.55;2.60;;;8.90;99.90;;;;;;4941633;28;20055;-63
2023/04/27 08:15:11;;;;;;;5.30;2.75;;;9.00;99.90;;;;;;4951416;28;20123;-65
2023/04/27 08:17:39;;;;;;;3.88;2.53;;;9.10;99.90;;;;;;4937383;28;20053;-66
2023/04/27 08:20:06;;;;;;;10.15;3.17;;;9.10;99.90;;;;;;4943716;28;20061;-64
2023/04/27 08:22:32;;;;;;;6.20;2.90;;;9.20;99.90;;;;;;4938867;28;20559;-64
2023/04/27 08:24:58;;;;;;;4.05;2.67;;;9.40;99.90;;;;;;4938293;28;20050;-64
2023/04/27 08:27:24;;;;;;;6.22;3.03;;;9.50;99.90;;;;;;4939282;28;20397;-64
2023/04/27 08:29:50;;;;;;;4.97;2.78;;;9.60;99.90;;;;;;4948319;28;20046;-64
2023/04/27 08:32:16;;;;;;;4.40;2.65;;;9.70;99.90;;;;;;4954129;28;20096;-64
2023/04/27 08:34:43;;;;;;;5.10;2.85;;;9.80;99.90;;;;;;4940886;28;20051;-64
2023/04/27 08:37:10;;;;;;;3.55;2.60;;;9.90;99.90;;;;;;4959011;28;20072;-65
2023/04/27 08:39:35;;;;;;;4.03;2.53;;;10.00;99.90;;;;;;4958206;28;20085;-65
2023/04/27 08:42:10;;;;;;;5.07;2.78;;;10.00;99.90;;;;;;4928330;28;20914;-64
2023/04/27 08:44:40;;;;;;;3.70;2.55;;;10.20;99.90;;;;;;4955914;28;20046;-64
2023/04/27 08:47:07;;;;;;;4.85;2.88;;;10.30;99.70;;;;;;4953621;28;20042;-63
2023/04/27 08:49:33;;;;;;;7.50;2.80;;;10.40;99.60;;;;;;4957050;28;20049;-64
2023/04/27 08:52:00;;;;;;;8.32;2.72;;;10.60;99.60;;;;;;4959005;28;20085;-64
2023/04/27 08:54:26;;;;;;;5.28;2.90;;;10.60;99.10;;;;;;4958781;28;20138;-63
2023/04/27 08:56:52;;;;;;;5.10;2.53;;;10.70;98.40;;;;;;4931427;28;20133;-65
2023/04/27 08:59:17;;;;;;;3.97;2.55;;;10.80;98.30;;;;;;4945356;28;20606;-64
2023/04/27 09:01:45;;;;;;;4.95;2.83;;;10.90;98.20;;;;;;4953119;28;20078;-66
2023/04/27 09:04:11;;;;;;;5.47;2.92;;;11.00;97.80;;;;;;4945907;28;20413;-64
2023/04/27 09:06:36;;;;;;;6.18;2.63;;;11.10;97.30;;;;;;4947636;28;20093;-66
2023/04/27 09:09:03;;;;;;;4.68;2.70;;;11.20;97.20;;;;;;4943084;28;20043;-64
2023/04/27 09:11:32;;;;;;;4.68;2.70;;;11.30;96.10;;;;;;4947766;28;20049;-64
2023/04/27 09:13:59;;;;;;;4.35;2.83;;;11.40;95.90;;;;;;4954096;28;21391;-64
2023/04/27 09:16:27;;;;;;;5.20;2.80;;;11.50;96.00;;;;;;4942717;28;20062;-65
2023/04/27 09:18:53;;;;;;;7.93;3.30;;;11.70;95.60;;;;;;4954932;28;20065;-63
2023/04/27 09:21:26;;;;;;;4.35;2.60;;;11.80;95.30;;;;;;4956083;28;20454;-64
2023/04/27 09:23:53;;;;;;;4.78;2.83;;;12.00;94.40;;;;;;4956439;28;20054;-64
2023/04/27 09:26:21;;;;;;;5.70;2.95;;;12.10;93.70;;;;;;4950619;28;20592;-63
2023/04/27 09:28:49;;;;;;;8.27;3.47;;;12.20;93.20;;;;;;4947347;28;20057;-66
2023/04/27 09:31:15;;;;;;;6.38;3.60;;;12.30;92.50;;;;;;4948939;28;20043;-63
2023/04/27 09:33:43;;;;;;;6.15;3.33;;;12.40;92.80;;;;;;4957742;28;20645;-64
2023/04/27 09:36:09;;;;;;;7.63;3.10;;;12.40;92.60;;;;;;4937437;28;20180;-64
2023/04/27 09:38:35;;;;;;;5.25;3.15;;;12.40;91.90;;;;;;4951290;28;20133;-64
2023/04/27 09:41:01;;;;;;;9.43;3.72;;;12.50;92.00;;;;;;4954146;28;20042;-64
2023/04/27 09:43:28;;;;;;;10.27;4.10;;;12.60;92.10;;;;;;4953511;28;20129;-65
2023/04/27 09:45:55;;;;;;;6.60;3.45;;;12.70;91.60;;;;;;4934172;28;20068;-64
2023/04/27 09:48:22;;;;;;;6.60;3.03;;;12.80;91.60;;;;;;4951960;28;20449;-63
2023/04/27 09:50:49;;;;;;;8.30;3.70;;;12.80;91.60;;;;;;4942400;28;20113;-63
2023/04/27 09:53:18;;;;;;;5.75;3.53;;;12.90;91.80;;;;;;4956264;28;20057;-64
2023/04/27 09:55:53;;;;;;;7.38;3.80;;;12.90;91.90;;;;;;4946228;28;20442;-65
2023/04/27 09:58:25;;;;;;;6.20;3.72;;;12.80;91.00;;;;;;4926113;28;20046;-64
2023/04/27 10:01:12;;;;;;;6.43;3.80;;;12.80;90.40;;;;;;4945035;28;20133;-65
2023/04/27 10:03:50;;;;;;;7.28;3.38;;;12.70;89.90;;;;;;4949334;28;20054;-63
2023/04/27 10:06:21;;;;;;;8.02;3.40;;;12.70;90.20;;;;;;4949162;28;20043;-65
2023/04/27 10:08:50;;;;;;;7.15;3.67;;;12.60;90.30;;;;;;4950698;28;24285;-62
2023/04/27 10:11:19;;;;;;;5.70;4.00;;;12.60;90.20;;;;;;4945441;28;20074;-65
2023/04/27 10:13:54;;;;;;;6.38;3.80;;;12.60;90.10;;;;;;4952980;28;20082;-62
2023/04/27 10:16:21;;;;;;;7.03;3.70;;;12.50;87.80;;;;;;4948147;28;20081;-63
2023/04/27 10:18:54;;;;;;;6.72;3.53;;;12.40;88.90;;;;;;4946391;28;20197;-63
2023/04/27 10:21:20;;;;;;;8.50;3.88;;;12.30;88.60;;;;;;4947655;28;20193;-64
2023/04/27 10:23:50;;;;;;;6.00;4.15;;;12.30;89.10;;;;;;4942305;28;20051;-64
2023/04/27 10:26:27;;;;;;;6.20;4.03;;;12.20;85.50;;;;;;4949700;28;20046;-62
2023/04/27 10:28:57;;;;;;;10.13;3.75;;;12.20;86.00;;;;;;4942483;28;20042;-65
2023/04/27 10:31:28;;;;;;;6.53;3.80;;;12.20;86.80;;;;;;4956453;28;20050;-63
2023/04/27 10:34:05;;;;;;;8.50;4.30;;;12.20;87.20;;;;;;4942630;28;20128;-64
2023/04/27 10:36:38;;;;;;;9.20;4.45;;;12.20;86.40;;;;;;4949271;28;20269;-62
2023/04/27 10:39:17;;;;;;;6.50;4.32;;;12.20;84.90;;;;;;4951216;28;20092;-64
2023/04/27 10:41:55;;;;;;;6.50;4.05;;;12.30;84.30;;;;;;4935608;28;20061;-65
2023/04/27 10:44:27;;;;;;;7.55;4.10;;;12.40;84.30;;;;;;4936680;28;20126;-65
2023/04/27 10:46:54;;;;;;;6.65;3.70;;;12.50;82.60;;;;;;4939602;28;20535;-66
2023/04/27 10:49:21;;;;;;;6.53;4.20;;;12.60;82.00;;;;;;4929919;28;20157;-67
2023/04/27 10:51:51;;;;;;;9.45;4.10;;;12.70;81.20;;;;;;4956469;28;20038;-66
2023/04/27 10:54:17;;;;;;;8.35;4.32;;;12.80;82.70;;;;;;4945589;28;20051;-65
2023/04/27 10:56:43;;;;;;;6.88;4.38;;;13.00;83.50;;;;;;4944527;28;20058;-64
2023/04/27 10:59:09;;;;;;;7.13;4.32;;;13.20;83.30;;;;;;4950632;28;20057;-66
2023/04/27 11:01:36;;;;;;;8.30;4.75;;;13.30;81.50;;;;;;4942850;28;20034;-66
2023/04/27 11:04:05;;;;;;;10.57;4.90;;;13.20;79.30;;;;;;4950922;28;21329;-67
2023/04/27 11:06:32;;;;;;;7.32;4.40;;;13.30;79.60;;;;;;4932889;28;20042;-66
2023/04/27 11:08:58;;;;;;;7.50;4.55;;;13.30;79.30;;;;;;4942857;28;20059;-69
2023/04/27 11:11:25;;;;;;;9.23;4.57;;;13.50;79.80;;;;;;4953884;28;20158;-65
2023/04/27 11:13:54;;;;;;;8.68;4.43;;;13.50;79.90;;;;;;4935162;28;20964;-64
2023/04/27 11:16:20;;;;;;;7.32;4.28;;;13.60;80.20;;;;;;4945974;28;20066;-65
2023/04/27 11:18:46;;;;;;;9.45;4.80;;;13.50;79.60;;;;;;4946382;28;20082;-65
2023/04/27 11:21:15;;;;;;;7.20;4.60;;;13.40;78.10;;;;;;4952412;28;20061;-64
2023/04/27 11:23:41;;;;;;;7.72;4.50;;;13.30;79.00;;;;;;4944405;28;20077;-64
2023/04/27 11:26:25;;;;;;;7.22;4.50;;;13.20;78.60;;;;;;4953829;28;20112;-64
2023/04/27 11:28:58;;;;;;;10.57;4.50;;;13.10;77.50;;;;;;4931964;28;20332;-66
2023/04/27 11:31:25;;;;;;;7.32;4.13;;;13.00;77.90;;;;;;4947914;28;20406;-69
2023/04/27 11:33:52;;;;;;;10.75;5.10;;;13.00;79.60;;;;;;4946795;28;20047;-65
2023/04/27 11:36:19;;;;;;;10.43;5.32;;;13.00;80.50;;;;;;4947963;28;20046;-66
2023/04/27 11:38:45;;;;;;;11.73;5.25;;;13.00;79.90;;;;;;4940104;28;20147;-64
2023/04/27 11:41:11;;;;;;;6.90;4.82;;;12.90;79.80;;;;;;4947016;28;20425;-63
2023/04/27 11:43:44;;;;;;;10.45;4.82;;;12.80;79.50;;;;;;4940658;28;20042;-65
2023/04/27 11:46:11;;;;;;;9.25;5.63;;;12.80;80.20;;;;;;4928393;28;20046;-65
2023/04/27 11:48:38;;;;;;;9.88;5.82;;;12.70;80.70;;;;;;4940695;28;20042;-64
2023/04/27 11:51:04;;;;;;;9.50;5.13;;;12.60;81.30;;;;;;4935756;28;20165;-63
2023/04/27 11:53:38;;;;;;;7.70;4.90;;;12.40;81.60;;;;;;4931180;28;20043;-64
2023/04/27 11:56:06;;;;;;;8.80;4.90;;;12.30;82.10;;;;;;4935740;28;20153;-63
2023/04/27 11:58:37;;;;;;;11.25;5.05;;;12.20;85.10;;;;;;4953071;28;20596;-63
2023/04/27 12:01:03;;;;;;;8.45;4.30;;;12.10;89.10;;;;;;4950290;28;20050;-63
2023/04/27 12:03:30;;;;;;;8.68;4.15;;;12.00;91.20;;;;;;4948442;28;20047;-64
2023/04/27 12:05:56;;;;;;;8.75;3.75;;;11.90;93.00;;;;;;4944315;28;20478;-64
2023/04/27 12:08:22;;;;;;;7.57;4.07;;;11.80;94.80;;;;;;4943759;28;20065;-63
2023/04/27 12:10:48;;;;;;;7.68;3.78;;;11.80;96.10;;;;;;4938134;28;20045;-64
2023/04/27 12:13:14;;;;;;;5.65;3.53;;;11.70;96.90;;;;;;4938022;28;20046;-64
2023/04/27 12:15:41;;;;;;;5.82;3.83;;;11.60;97.40;;;;;;4947443;28;20120;-63
2023/04/27 12:18:07;;;;;;;8.57;3.63;;;11.60;97.90;;;;;;4947839;28;20107;-63
2023/04/27 12:20:33;;;;;;;5.53;3.78;;;11.50;98.40;;;;;;4933912;28;20482;-65
2023/04/27 12:22:59;;;;;;;5.35;3.45;;;11.50;98.80;;;;;;4956378;28;20065;-62
2023/04/27 12:25:25;;;;;;;8.98;3.65;;;11.50;99.10;;;;;;4954397;28;20054;-63
2023/04/27 12:27:52;;;;;;;8.55;3.42;;;11.60;99.50;;;;;;4951666;28;20051;-64
2023/04/27 12:30:18;;;;;;;5.53;3.20;;;11.80;99.40;;;;;;4946695;28;20090;-61
2023/04/27 12:32:43;;;;;;;7.70;3.60;;;11.90;99.20;;;;;;4947016;28;20043;-60
2023/04/27 12:35:09;;;;;;;9.45;3.70;;;12.10;99.40;;;;;;4947536;28;20043;-61
2023/04/27 12:37:35;;;;;;;8.80;3.58;;;12.30;99.10;;;;;;4954025;28;20074;-60
2023/04/27 12:40:08;;;;;;;8.00;3.95;;;12.40;98.60;;;;;;4940041;28;20049;-61
2023/04/27 12:42:34;;;;;;;5.90;3.60;;;12.60;98.20;;;;;;4946916;28;20062;-61
2023/04/27 12:45:00;;;;;;;6.82;3.80;;;12.80;97.80;;;;;;4950195;28;20073;-61